Weather observations for the past three days for
Walla Walla Regional Airport
Imperial (Metric)
Date Time (pdt) Wind (mph) Vis. (mi.) Weather Sky Cond. Temperature (ºF) Relative Humidity Wind Chill (°F) Heat Index (°F) Pressure Precipitation (in)
Air Dwpt 6 hour altimeter (in) sea level (mb) 1 hr 3 hr 6 hr
Max. Min.
10 11:53 Vrbl 3 10.00 Fair CLR 68 45 44% 29.94 1013.7
10 10:53 W 9 10.00 Fair CLR 66.9 44.1 66.9 51.1 44% 29.96 1014.2
10 09:53 S 3 10.00 Fair CLR 64.9 45 49% 29.96 1014.4
10 08:53 S 5 10.00 Fair CLR 61 44.1 54% 29.96 1014.4
10 07:53 S 6 10.00 Fair CLR 57.9 43 58% 29.96 1014.4
10 06:53 S 6 10.00 Fair CLR 55 43 64% 29.95 1013.9
10 05:53 Calm 10.00 Fair CLR 51.1 41 69% 29.95 1013.8
10 04:53 S 3 10.00 Fair CLR 54 41 59 50 62% 29.95 1013.9
10 03:53 Calm 10.00 Fair CLR 51.1 39.9 66% 29.95 1013.8
10 02:53 Calm 10.00 Fair CLR 51.1 41 69% 29.95 1014.0
10 01:53 E 6 10.00 Fair CLR 55 39.9 57% 29.96 1014.3
10 00:53 E 3 10.00 Fair CLR 54 39.9 59% 29.98 1014.8
09 23:53 E 6 10.00 Fair CLR 55.9 39.9 55% 29.97 1014.8
09 22:53 E 6 10.00 Fair CLR 59 42.1 75 54 54% 29.98 1015.0
09 21:53 E 10 10.00 Fair CLR 54 46 75% 29.99 1015.6
09 20:53 E 9 10.00 Fair CLR 60.1 45 58% 30 1015.8
09 19:53 E 8 10.00 Fair CLR 66 46.9 50% 30 1015.7
09 18:53 NE 5 10.00 Fair CLR 72 42.1 34% 30.01 1015.9
09 17:53 E 5 10.00 Fair CLR 73.9 36 25% 30.03 1016.5
09 16:53 Vrbl 5 10.00 Fair CLR 75 33.1 75.9 64.9 22% 76 30.04 1017.0
09 15:53 NW 7 10.00 Fair CLR 73.9 37 26% 30.05 1017.4
09 14:53 Calm 10.00 Fair CLR 73 39.9 30% 30.07 1018.0
09 13:53 NW 8 10.00 Fair CLR 72 41 33% 30.09 1018.7
09 12:53 SW 6 10.00 Fair CLR 70 43 38% 30.1 1019.1
09 11:53 S 5 10.00 Fair CLR 68 42.1 39% 30.13 1020.1
09 10:53 S 6 10.00 Fair CLR 66 42.1 66 51.1 42% 30.15 1020.7
09 09:53 Vrbl 6 10.00 Fair CLR 63 43 48% 30.16 1021.0
09 08:53 SW 9 10.00 Fair CLR 62.1 43 50% 30.15 1020.8
09 07:53 S 7 10.00 Fair CLR 59 42.1 54% 30.15 1020.7
09 06:53 S 6 10.00 Fair CLR 54 43 67% 30.15 1020.6
09 05:53 S 8 10.00 Fair CLR 52 42.1 69% 30.14 1020.4
09 04:53 S 10 10.00 Fair CLR 52 42.1 57.9 52 69% 30.14 1020.2
09 03:53 S 9 10.00 Fair CLR 52 42.1 69% 30.14 1020.2
09 02:53 S 10 10.00 Fair CLR 52 42.1 69% 30.12 1019.8
09 01:53 S 14 10.00 Fair CLR 54 42.1 64% 30.11 1019.5
09 00:53 S 13 10.00 Fair CLR 55 41 59% 30.11 1019.2
08 23:53 S 13 10.00 Fair CLR 55.9 41 57% 30.09 1018.8
08 22:53 S 10 10.00 Fair CLR 57.9 39 75 57.9 50% 30.08 1018.4
08 21:53 S 12 10.00 Fair CLR 60.1 37.9 44% 30.06 1017.7
08 20:53 S 12 10.00 Fair CLR 64 36 35% 30.03 1016.5
08 19:53 SW 13 10.00 Fair CLR 66.9 34 30% 30 1015.4
08 18:53 W 15 G 25 10.00 Fair CLR 72 30.9 22% 29.97 1014.5
08 17:53 W 20 G 26 10.00 Fair CLR 73.9 27 17% 29.97 1014.6
08 16:53 SW 17 G 30 10.00 A Few Clouds FEW120 75 21.9 75.9 66 14% 75 29.97 1014.5
08 15:53 W 14 10.00 Fair CLR 75 18 11% 75 29.98 1014.9
08 14:53 W 17 10.00 Fair CLR 73.9 30 20% 29.99 1015.2
08 13:53 SW 20 G 26 10.00 Fair CLR 73 32 22% 29.98 1014.9
08 12:53 S 13 G 22 10.00 Fair CLR 70 36 29% 29.99 1015.2
08 11:53 SW 16 10.00 Fair CLR 68 34 28% 30 1015.5
08 10:53 SW 20 G 31 10.00 Fair CLR 66 39.9 66 54 39% 30.01 1016.1
08 09:53 S 16 10.00 Fair CLR 66 39.9 39% 30 1015.4
08 08:53 S 21 G 26 10.00 Fair and Breezy CLR 64.9 37 36% 29.99 1015.2
08 07:53 S 18 10.00 Fair CLR 63 36 37% 29.98 1014.9
08 06:53 S 16 10.00 Fair CLR 61 36 39% 29.98 1014.6
08 05:53 S 12 10.00 Fair CLR 55.9 27 33% 29.97 1014.3
08 04:53 S 10 10.00 Fair CLR 55 25 62.1 51.1 31% 29.95 1013.9
08 03:53 SE 6 10.00 Fair CLR 54 24.1 31% 29.94 1013.6
08 02:53 S 8 10.00 Fair CLR 57 23 27% 29.95 1013.7
08 01:53 S 10 10.00 Fair CLR 57.9 25 28% 29.94 1013.5
08 00:53 S 9 10.00 Fair CLR 59 28.9 32% 29.94 1013.4
07 23:53 S 10 10.00 Fair CLR 61 30.9 32% 29.93 1013.3
07 22:53 SE 6 10.00 Fair CLR 62.1 35.1 75.9 61 37% 29.92 1012.8
07 21:53 SE 7 10.00 Fair CLR 62.1 34 35% 29.91 1012.6
07 20:53 SE 8 10.00 Fair CLR 64 35.1 34% 29.91 1012.6
07 19:53 S 3 10.00 Fair CLR 68 32 26% 29.9 1012.2
07 18:53 SW 6 10.00 Fair CLR 73 27 18% 29.9 1012.1
07 17:53 W 5 10.00 Fair CLR 75 30.9 20% 76 29.91 1012.5
07 16:53 Calm 10.00 Fair CLR 75 32 75.9 68 21% 76 29.92 1012.6
07 15:53 W 7 G 17 10.00 Fair CLR 75 32 21% 76 29.93 1013.2
07 14:53 S 10 G 20 10.00 Fair CLR 73.9 34 23% 29.95 1013.9
07 13:53 S 15 G 26 10.00 Fair CLR 73 37 27% 29.97 1014.5
07 12:53 S 13 10.00 Fair CLR 72 39.9 31% 29.98 1014.9
Date Time (pdt) Wind (mph) Vis. (mi.) Weather Sky Cond. Air Dwpt Max. Min. Relative Humidity Wind Chill (°F) Heat Index (°F) altimeter (in) sea level (mb) 1 hr 3 hr 6 hr
6 hour
Temperature (ºF) Pressure Precipitation (in)